sensor_id;sensor_type;location;lat;lon;timestamp;P1;durP1;ratioP1;P2;durP2;ratioP2
54171;SDS011;40076;52.354;4.970;2024-01-30T00:02:22;25.35;;;18.15;;
54171;SDS011;40076;52.354;4.970;2024-01-30T00:04:48;26.25;;;18.42;;
54171;SDS011;40076;52.354;4.970;2024-01-30T00:07:14;25.92;;;18.02;;
54171;SDS011;40076;52.354;4.970;2024-01-30T00:09:39;27.40;;;18.83;;
54171;SDS011;40076;52.354;4.970;2024-01-30T00:12:05;22.08;;;17.17;;
54171;SDS011;40076;52.354;4.970;2024-01-30T00:14:31;21.95;;;17.00;;
54171;SDS011;40076;52.354;4.970;2024-01-30T00:16:57;22.50;;;16.70;;
54171;SDS011;40076;52.354;4.970;2024-01-30T00:19:22;24.45;;;17.02;;
54171;SDS011;40076;52.354;4.970;2024-01-30T00:21:48;27.08;;;17.27;;
54171;SDS011;40076;52.354;4.970;2024-01-30T00:24:16;22.23;;;15.98;;
54171;SDS011;40076;52.354;4.970;2024-01-30T00:26:42;24.63;;;16.92;;
54171;SDS011;40076;52.354;4.970;2024-01-30T00:29:07;22.17;;;15.80;;
54171;SDS011;40076;52.354;4.970;2024-01-30T00:31:33;19.50;;;16.05;;
54171;SDS011;40076;52.354;4.970;2024-01-30T00:33:59;24.17;;;16.58;;
54171;SDS011;40076;52.354;4.970;2024-01-30T00:36:24;21.17;;;15.27;;
54171;SDS011;40076;52.354;4.970;2024-01-30T00:38:50;24.02;;;16.45;;
54171;SDS011;40076;52.354;4.970;2024-01-30T00:41:17;22.20;;;15.65;;
54171;SDS011;40076;52.354;4.970;2024-01-30T00:43:42;20.33;;;15.85;;
54171;SDS011;40076;52.354;4.970;2024-01-30T00:46:08;22.38;;;16.02;;
54171;SDS011;40076;52.354;4.970;2024-01-30T00:48:33;19.55;;;15.10;;
54171;SDS011;40076;52.354;4.970;2024-01-30T00:50:59;21.30;;;14.70;;
54171;SDS011;40076;52.354;4.970;2024-01-30T00:53:26;22.10;;;15.48;;
54171;SDS011;40076;52.354;4.970;2024-01-30T00:55:51;20.20;;;15.80;;
54171;SDS011;40076;52.354;4.970;2024-01-30T00:58:17;17.92;;;14.55;;
54171;SDS011;40076;52.354;4.970;2024-01-30T01:00:44;21.42;;;15.43;;
54171;SDS011;40076;52.354;4.970;2024-01-30T01:03:10;23.60;;;15.27;;
54171;SDS011;40076;52.354;4.970;2024-01-30T01:05:35;22.90;;;14.73;;
54171;SDS011;40076;52.354;4.970;2024-01-30T01:08:01;20.83;;;15.35;;
54171;SDS011;40076;52.354;4.970;2024-01-30T01:10:26;23.60;;;14.93;;
54171;SDS011;40076;52.354;4.970;2024-01-30T01:12:53;22.83;;;13.88;;
54171;SDS011;40076;52.354;4.970;2024-01-30T01:15:18;20.60;;;14.57;;
54171;SDS011;40076;52.354;4.970;2024-01-30T01:17:46;18.35;;;13.88;;
54171;SDS011;40076;52.354;4.970;2024-01-30T01:20:11;20.85;;;13.85;;
54171;SDS011;40076;52.354;4.970;2024-01-30T01:22:37;19.75;;;13.80;;
54171;SDS011;40076;52.354;4.970;2024-01-30T01:25:03;22.15;;;14.63;;
54171;SDS011;40076;52.354;4.970;2024-01-30T01:27:32;19.85;;;13.93;;
54171;SDS011;40076;52.354;4.970;2024-01-30T01:29:59;19.20;;;14.32;;
54171;SDS011;40076;52.354;4.970;2024-01-30T01:32:24;18.77;;;14.32;;
54171;SDS011;40076;52.354;4.970;2024-01-30T01:34:51;20.58;;;14.40;;
54171;SDS011;40076;52.354;4.970;2024-01-30T01:37:16;20.40;;;14.20;;
54171;SDS011;40076;52.354;4.970;2024-01-30T01:39:42;19.83;;;14.00;;
54171;SDS011;40076;52.354;4.970;2024-01-30T01:42:07;19.38;;;13.88;;
54171;SDS011;40076;52.354;4.970;2024-01-30T01:44:33;21.98;;;14.38;;
54171;SDS011;40076;52.354;4.970;2024-01-30T01:46:58;19.88;;;14.77;;
54171;SDS011;40076;52.354;4.970;2024-01-30T01:49:26;21.80;;;14.07;;
54171;SDS011;40076;52.354;4.970;2024-01-30T01:51:53;18.88;;;14.23;;
54171;SDS011;40076;52.354;4.970;2024-01-30T01:54:21;21.10;;;13.85;;
54171;SDS011;40076;52.354;4.970;2024-01-30T01:56:49;19.52;;;13.95;;
54171;SDS011;40076;52.354;4.970;2024-01-30T01:59:16;19.70;;;13.65;;
54171;SDS011;40076;52.354;4.970;2024-01-30T02:01:43;19.27;;;14.07;;
54171;SDS011;40076;52.354;4.970;2024-01-30T02:04:10;20.10;;;13.52;;
54171;SDS011;40076;52.354;4.970;2024-01-30T02:06:36;22.92;;;14.48;;
54171;SDS011;40076;52.354;4.970;2024-01-30T02:09:05;18.30;;;14.07;;
54171;SDS011;40076;52.354;4.970;2024-01-30T02:11:31;18.10;;;13.30;;
54171;SDS011;40076;52.354;4.970;2024-01-30T02:13:57;22.00;;;13.90;;
54171;SDS011;40076;52.354;4.970;2024-01-30T02:16:22;21.08;;;14.48;;
54171;SDS011;40076;52.354;4.970;2024-01-30T02:18:48;19.10;;;13.45;;
54171;SDS011;40076;52.354;4.970;2024-01-30T02:21:17;19.65;;;12.82;;
54171;SDS011;40076;52.354;4.970;2024-01-30T02:23:44;18.25;;;12.65;;
54171;SDS011;40076;52.354;4.970;2024-01-30T02:26:17;18.92;;;13.75;;
54171;SDS011;40076;52.354;4.970;2024-01-30T02:28:42;18.67;;;13.55;;
54171;SDS011;40076;52.354;4.970;2024-01-30T02:31:08;19.85;;;13.30;;
54171;SDS011;40076;52.354;4.970;2024-01-30T02:33:35;21.80;;;13.27;;
54171;SDS011;40076;52.354;4.970;2024-01-30T02:36:03;19.30;;;12.70;;
54171;SDS011;40076;52.354;4.970;2024-01-30T02:38:38;19.08;;;14.00;;
54171;SDS011;40076;52.354;4.970;2024-01-30T02:41:04;17.38;;;12.93;;
54171;SDS011;40076;52.354;4.970;2024-01-30T02:43:30;16.67;;;12.15;;
54171;SDS011;40076;52.354;4.970;2024-01-30T02:45:55;18.00;;;13.07;;
54171;SDS011;40076;52.354;4.970;2024-01-30T02:48:23;17.90;;;12.77;;
54171;SDS011;40076;52.354;4.970;2024-01-30T02:50:48;20.50;;;13.82;;
54171;SDS011;40076;52.354;4.970;2024-01-30T02:53:14;19.65;;;13.10;;
54171;SDS011;40076;52.354;4.970;2024-01-30T02:55:42;16.70;;;11.95;;
54171;SDS011;40076;52.354;4.970;2024-01-30T02:58:08;16.75;;;12.32;;
54171;SDS011;40076;52.354;4.970;2024-01-30T03:00:33;17.63;;;11.90;;
54171;SDS011;40076;52.354;4.970;2024-01-30T03:02:59;20.13;;;12.75;;
54171;SDS011;40076;52.354;4.970;2024-01-30T03:05:25;19.45;;;12.27;;
54171;SDS011;40076;52.354;4.970;2024-01-30T03:07:50;20.23;;;12.38;;
54171;SDS011;40076;52.354;4.970;2024-01-30T03:10:16;18.38;;;12.82;;
54171;SDS011;40076;52.354;4.970;2024-01-30T03:12:41;17.88;;;12.85;;
54171;SDS011;40076;52.354;4.970;2024-01-30T03:15:07;22.10;;;13.32;;
54171;SDS011;40076;52.354;4.970;2024-01-30T03:17:32;18.55;;;12.55;;
54171;SDS011;40076;52.354;4.970;2024-01-30T03:19:58;18.17;;;12.95;;
54171;SDS011;40076;52.354;4.970;2024-01-30T03:22:23;17.10;;;12.43;;
54171;SDS011;40076;52.354;4.970;2024-01-30T03:24:49;18.35;;;12.05;;
54171;SDS011;40076;52.354;4.970;2024-01-30T03:27:14;19.38;;;12.63;;
54171;SDS011;40076;52.354;4.970;2024-01-30T03:29:40;15.98;;;12.02;;
54171;SDS011;40076;52.354;4.970;2024-01-30T03:32:05;20.48;;;12.30;;
54171;SDS011;40076;52.354;4.970;2024-01-30T03:34:31;16.38;;;12.25;;
54171;SDS011;40076;52.354;4.970;2024-01-30T03:36:59;17.15;;;12.07;;
54171;SDS011;40076;52.354;4.970;2024-01-30T03:39:27;14.27;;;11.18;;
54171;SDS011;40076;52.354;4.970;2024-01-30T03:41:53;17.48;;;11.68;;
54171;SDS011;40076;52.354;4.970;2024-01-30T03:44:18;21.20;;;12.65;;
54171;SDS011;40076;52.354;4.970;2024-01-30T03:46:46;16.77;;;11.35;;
54171;SDS011;40076;52.354;4.970;2024-01-30T03:49:12;18.48;;;11.75;;
54171;SDS011;40076;52.354;4.970;2024-01-30T03:51:39;16.90;;;12.45;;
54171;SDS011;40076;52.354;4.970;2024-01-30T03:54:05;15.23;;;11.32;;
54171;SDS011;40076;52.354;4.970;2024-01-30T03:56:30;17.85;;;12.40;;
54171;SDS011;40076;52.354;4.970;2024-01-30T03:58:56;17.35;;;11.60;;
54171;SDS011;40076;52.354;4.970;2024-01-30T04:01:22;17.15;;;11.35;;
54171;SDS011;40076;52.354;4.970;2024-01-30T04:03:50;16.65;;;11.80;;
54171;SDS011;40076;52.354;4.970;2024-01-30T04:06:15;19.13;;;12.43;;
54171;SDS011;40076;52.354;4.970;2024-01-30T04:08:41;17.75;;;11.60;;
54171;SDS011;40076;52.354;4.970;2024-01-30T04:11:06;20.20;;;12.18;;
54171;SDS011;40076;52.354;4.970;2024-01-30T04:13:32;16.88;;;11.30;;
54171;SDS011;40076;52.354;4.970;2024-01-30T04:16:02;18.38;;;11.85;;
54171;SDS011;40076;52.354;4.970;2024-01-30T04:18:28;15.65;;;11.50;;
54171;SDS011;40076;52.354;4.970;2024-01-30T04:20:54;17.48;;;12.40;;
54171;SDS011;40076;52.354;4.970;2024-01-30T04:23:20;16.58;;;11.38;;
54171;SDS011;40076;52.354;4.970;2024-01-30T04:25:45;19.17;;;12.32;;
54171;SDS011;40076;52.354;4.970;2024-01-30T04:28:12;19.08;;;11.48;;
54171;SDS011;40076;52.354;4.970;2024-01-30T04:30:38;20.98;;;12.65;;
54171;SDS011;40076;52.354;4.970;2024-01-30T04:33:03;17.20;;;12.65;;
54171;SDS011;40076;52.354;4.970;2024-01-30T04:35:38;16.23;;;12.30;;
54171;SDS011;40076;52.354;4.970;2024-01-30T04:38:04;18.60;;;11.13;;
54171;SDS011;40076;52.354;4.970;2024-01-30T04:40:29;17.08;;;12.30;;
54171;SDS011;40076;52.354;4.970;2024-01-30T04:42:55;19.05;;;12.07;;
54171;SDS011;40076;52.354;4.970;2024-01-30T04:45:20;17.38;;;12.05;;
54171;SDS011;40076;52.354;4.970;2024-01-30T04:47:45;19.52;;;12.57;;
54171;SDS011;40076;52.354;4.970;2024-01-30T04:50:11;19.27;;;12.63;;
54171;SDS011;40076;52.354;4.970;2024-01-30T04:52:36;16.92;;;12.40;;
54171;SDS011;40076;52.354;4.970;2024-01-30T04:55:02;18.15;;;12.30;;
54171;SDS011;40076;52.354;4.970;2024-01-30T04:57:27;18.85;;;11.88;;
54171;SDS011;40076;52.354;4.970;2024-01-30T04:59:53;16.77;;;11.93;;
54171;SDS011;40076;52.354;4.970;2024-01-30T05:02:19;19.15;;;12.50;;
54171;SDS011;40076;52.354;4.970;2024-01-30T05:04:44;16.90;;;12.00;;
54171;SDS011;40076;52.354;4.970;2024-01-30T05:07:10;17.60;;;11.95;;
54171;SDS011;40076;52.354;4.970;2024-01-30T05:09:35;21.38;;;12.10;;
54171;SDS011;40076;52.354;4.970;2024-01-30T05:12:00;17.85;;;13.02;;
54171;SDS011;40076;52.354;4.970;2024-01-30T05:14:26;16.50;;;12.07;;
54171;SDS011;40076;52.354;4.970;2024-01-30T05:16:51;16.50;;;12.07;;
54171;SDS011;40076;52.354;4.970;2024-01-30T05:19:17;18.17;;;12.35;;
54171;SDS011;40076;52.354;4.970;2024-01-30T05:21:42;22.63;;;11.68;;
54171;SDS011;40076;52.354;4.970;2024-01-30T05:24:08;17.88;;;12.50;;
54171;SDS011;40076;52.354;4.970;2024-01-30T05:26:35;20.23;;;11.75;;
54171;SDS011;40076;52.354;4.970;2024-01-30T05:29:00;18.52;;;12.30;;
54171;SDS011;40076;52.354;4.970;2024-01-30T05:31:26;19.10;;;12.27;;
54171;SDS011;40076;52.354;4.970;2024-01-30T05:33:52;20.65;;;12.43;;
54171;SDS011;40076;52.354;4.970;2024-01-30T05:36:17;19.85;;;11.77;;
54171;SDS011;40076;52.354;4.970;2024-01-30T05:38:43;18.25;;;11.75;;
54171;SDS011;40076;52.354;4.970;2024-01-30T05:41:08;18.27;;;11.98;;
54171;SDS011;40076;52.354;4.970;2024-01-30T05:43:34;14.85;;;11.25;;
54171;SDS011;40076;52.354;4.970;2024-01-30T05:46:00;18.13;;;12.20;;
54171;SDS011;40076;52.354;4.970;2024-01-30T05:48:25;20.92;;;11.98;;
54171;SDS011;40076;52.354;4.970;2024-01-30T05:50:51;18.70;;;12.55;;
54171;SDS011;40076;52.354;4.970;2024-01-30T05:53:16;17.27;;;12.13;;
54171;SDS011;40076;52.354;4.970;2024-01-30T05:55:42;18.65;;;12.75;;
54171;SDS011;40076;52.354;4.970;2024-01-30T05:58:15;20.58;;;12.63;;
54171;SDS011;40076;52.354;4.970;2024-01-30T06:00:40;18.23;;;12.02;;
54171;SDS011;40076;52.354;4.970;2024-01-30T06:03:05;16.95;;;11.95;;
54171;SDS011;40076;52.354;4.970;2024-01-30T06:05:31;17.00;;;12.05;;
54171;SDS011;40076;52.354;4.970;2024-01-30T06:07:56;17.52;;;12.63;;
54171;SDS011;40076;52.354;4.970;2024-01-30T06:10:22;17.33;;;12.40;;
54171;SDS011;40076;52.354;4.970;2024-01-30T06:12:47;19.00;;;12.20;;
54171;SDS011;40076;52.354;4.970;2024-01-30T06:15:13;14.88;;;11.95;;
54171;SDS011;40076;52.354;4.970;2024-01-30T06:17:39;17.02;;;12.35;;
54171;SDS011;40076;52.354;4.970;2024-01-30T06:20:05;17.48;;;12.02;;
54171;SDS011;40076;52.354;4.970;2024-01-30T06:22:31;16.70;;;12.10;;
54171;SDS011;40076;52.354;4.970;2024-01-30T06:24:56;16.75;;;12.23;;
54171;SDS011;40076;52.354;4.970;2024-01-30T06:27:22;16.95;;;12.32;;
54171;SDS011;40076;52.354;4.970;2024-01-30T06:29:47;18.05;;;12.48;;
54171;SDS011;40076;52.354;4.970;2024-01-30T06:32:16;17.15;;;12.57;;
54171;SDS011;40076;52.354;4.970;2024-01-30T06:34:41;18.75;;;12.38;;
54171;SDS011;40076;52.354;4.970;2024-01-30T06:37:09;17.42;;;12.70;;
54171;SDS011;40076;52.354;4.970;2024-01-30T06:39:34;20.33;;;12.63;;
54171;SDS011;40076;52.354;4.970;2024-01-30T06:42:00;20.05;;;12.05;;
54171;SDS011;40076;52.354;4.970;2024-01-30T06:44:25;18.45;;;12.30;;
54171;SDS011;40076;52.354;4.970;2024-01-30T06:46:51;17.92;;;12.40;;
54171;SDS011;40076;52.354;4.970;2024-01-30T06:49:16;19.63;;;12.00;;
54171;SDS011;40076;52.354;4.970;2024-01-30T06:51:42;17.60;;;11.88;;
54171;SDS011;40076;52.354;4.970;2024-01-30T06:54:07;17.27;;;11.80;;
54171;SDS011;40076;52.354;4.970;2024-01-30T07:03:44;17.58;;;12.68;;
54171;SDS011;40076;52.354;4.970;2024-01-30T07:10:14;18.98;;;12.57;;
54171;SDS011;40076;52.354;4.970;2024-01-30T07:13:38;18.55;;;12.30;;
54171;SDS011;40076;52.354;4.970;2024-01-30T07:16:22;17.13;;;12.10;;
54171;SDS011;40076;52.354;4.970;2024-01-30T07:42:55;19.25;;;11.60;;
54171;SDS011;40076;52.354;4.970;2024-01-30T07:45:32;23.67;;;12.95;;
54171;SDS011;40076;52.354;4.970;2024-01-30T07:48:00;16.92;;;11.70;;
54171;SDS011;40076;52.354;4.970;2024-01-30T07:50:26;23.52;;;11.85;;
54171;SDS011;40076;52.354;4.970;2024-01-30T07:52:55;23.95;;;12.30;;
54171;SDS011;40076;52.354;4.970;2024-01-30T07:55:24;20.80;;;11.48;;
54171;SDS011;40076;52.354;4.970;2024-01-30T07:57:54;19.02;;;12.35;;
54171;SDS011;40076;52.354;4.970;2024-01-30T08:00:23;20.27;;;11.93;;
54171;SDS011;40076;52.354;4.970;2024-01-30T08:05:22;27.98;;;12.07;;
54171;SDS011;40076;52.354;4.970;2024-01-30T08:07:49;18.30;;;11.57;;
54171;SDS011;40076;52.354;4.970;2024-01-30T08:10:14;19.85;;;12.05;;
54171;SDS011;40076;52.354;4.970;2024-01-30T08:12:52;21.08;;;13.00;;
54171;SDS011;40076;52.354;4.970;2024-01-30T08:15:24;15.85;;;10.77;;
54171;SDS011;40076;52.354;4.970;2024-01-30T08:17:56;16.05;;;11.23;;
54171;SDS011;40076;52.354;4.970;2024-01-30T08:20:25;14.82;;;9.27;;
54171;SDS011;40076;52.354;4.970;2024-01-30T08:22:51;16.95;;;11.70;;
54171;SDS011;40076;52.354;4.970;2024-01-30T08:25:25;16.48;;;11.68;;
54171;SDS011;40076;52.354;4.970;2024-01-30T08:27:50;17.45;;;11.80;;
54171;SDS011;40076;52.354;4.970;2024-01-30T08:30:19;17.38;;;11.95;;
54171;SDS011;40076;52.354;4.970;2024-01-30T08:32:44;21.42;;;12.23;;
54171;SDS011;40076;52.354;4.970;2024-01-30T08:35:10;17.67;;;11.63;;
54171;SDS011;40076;52.354;4.970;2024-01-30T08:37:38;16.25;;;11.25;;
54171;SDS011;40076;52.354;4.970;2024-01-30T08:40:07;20.48;;;12.23;;
54171;SDS011;40076;52.354;4.970;2024-01-30T08:42:33;19.73;;;13.13;;
54171;SDS011;40076;52.354;4.970;2024-01-30T08:45:02;19.70;;;12.20;;
54171;SDS011;40076;52.354;4.970;2024-01-30T08:47:29;17.38;;;11.52;;
54171;SDS011;40076;52.354;4.970;2024-01-30T08:49:56;19.52;;;12.60;;
54171;SDS011;40076;52.354;4.970;2024-01-30T08:52:24;19.83;;;11.82;;
54171;SDS011;40076;52.354;4.970;2024-01-30T08:54:57;18.95;;;12.82;;
54171;SDS011;40076;52.354;4.970;2024-01-30T08:57:25;20.05;;;12.75;;
54171;SDS011;40076;52.354;4.970;2024-01-30T08:59:57;18.90;;;12.18;;
54171;SDS011;40076;52.354;4.970;2024-01-30T09:02:30;19.25;;;12.30;;
54171;SDS011;40076;52.354;4.970;2024-01-30T09:04:57;20.85;;;12.90;;
54171;SDS011;40076;52.354;4.970;2024-01-30T09:07:25;23.15;;;12.55;;
54171;SDS011;40076;52.354;4.970;2024-01-30T09:09:50;17.08;;;12.00;;
54171;SDS011;40076;52.354;4.970;2024-01-30T09:12:16;23.88;;;12.88;;
54171;SDS011;40076;52.354;4.970;2024-01-30T09:14:41;22.13;;;13.30;;
54171;SDS011;40076;52.354;4.970;2024-01-30T09:17:09;20.88;;;12.82;;
54171;SDS011;40076;52.354;4.970;2024-01-30T09:19:42;24.63;;;12.07;;
54171;SDS011;40076;52.354;4.970;2024-01-30T09:22:07;22.75;;;12.88;;
54171;SDS011;40076;52.354;4.970;2024-01-30T09:24:33;22.95;;;13.23;;
54171;SDS011;40076;52.354;4.970;2024-01-30T09:26:58;22.95;;;12.77;;
54171;SDS011;40076;52.354;4.970;2024-01-30T09:29:24;22.48;;;13.30;;
54171;SDS011;40076;52.354;4.970;2024-01-30T09:31:51;22.48;;;13.35;;
54171;SDS011;40076;52.354;4.970;2024-01-30T09:34:17;22.52;;;13.30;;
54171;SDS011;40076;52.354;4.970;2024-01-30T09:36:45;22.38;;;13.65;;
54171;SDS011;40076;52.354;4.970;2024-01-30T09:39:11;19.10;;;13.23;;
54171;SDS011;40076;52.354;4.970;2024-01-30T09:41:40;23.67;;;14.77;;
54171;SDS011;40076;52.354;4.970;2024-01-30T09:44:29;25.63;;;14.35;;
54171;SDS011;40076;52.354;4.970;2024-01-30T09:46:55;23.25;;;13.40;;
54171;SDS011;40076;52.354;4.970;2024-01-30T09:49:23;24.02;;;14.45;;
54171;SDS011;40076;52.354;4.970;2024-01-30T09:51:52;25.08;;;13.75;;
54171;SDS011;40076;52.354;4.970;2024-01-30T09:54:18;17.77;;;13.93;;
54171;SDS011;40076;52.354;4.970;2024-01-30T09:56:45;18.02;;;13.63;;
54171;SDS011;40076;52.354;4.970;2024-01-30T09:59:12;26.33;;;14.20;;
54171;SDS011;40076;52.354;4.970;2024-01-30T10:01:37;22.42;;;14.27;;
54171;SDS011;40076;52.354;4.970;2024-01-30T10:04:04;27.15;;;13.98;;
54171;SDS011;40076;52.354;4.970;2024-01-30T10:06:42;24.75;;;14.35;;
54171;SDS011;40076;52.354;4.970;2024-01-30T10:09:14;20.85;;;14.05;;
54171;SDS011;40076;52.354;4.970;2024-01-30T10:11:44;22.50;;;12.93;;
54171;SDS011;40076;52.354;4.970;2024-01-30T10:14:16;19.67;;;12.50;;
54171;SDS011;40076;52.354;4.970;2024-01-30T10:16:58;18.58;;;7.10;;
54171;SDS011;40076;52.354;4.970;2024-01-30T10:19:24;16.45;;;5.80;;
54171;SDS011;40076;52.354;4.970;2024-01-30T10:22:00;10.27;;;5.60;;
54171;SDS011;40076;52.354;4.970;2024-01-30T10:24:26;12.52;;;5.32;;
54171;SDS011;40076;52.354;4.970;2024-01-30T10:26:53;12.30;;;5.63;;
54171;SDS011;40076;52.354;4.970;2024-01-30T10:29:18;18.10;;;5.18;;
54171;SDS011;40076;52.354;4.970;2024-01-30T10:31:44;11.30;;;4.40;;
54171;SDS011;40076;52.354;4.970;2024-01-30T10:34:12;10.52;;;3.70;;
54171;SDS011;40076;52.354;4.970;2024-01-30T10:36:40;10.07;;;3.40;;
54171;SDS011;40076;52.354;4.970;2024-01-30T10:39:08;7.53;;;2.58;;
54171;SDS011;40076;52.354;4.970;2024-01-30T10:41:41;8.25;;;2.22;;
54171;SDS011;40076;52.354;4.970;2024-01-30T10:44:09;9.52;;;2.30;;
54171;SDS011;40076;52.354;4.970;2024-01-30T10:46:35;7.35;;;1.55;;
54171;SDS011;40076;52.354;4.970;2024-01-30T10:49:03;7.70;;;1.70;;
54171;SDS011;40076;52.354;4.970;2024-01-30T10:51:29;8.85;;;1.70;;
54171;SDS011;40076;52.354;4.970;2024-01-30T10:53:56;8.13;;;1.80;;
54171;SDS011;40076;52.354;4.970;2024-01-30T10:56:23;6.47;;;1.50;;
54171;SDS011;40076;52.354;4.970;2024-01-30T10:58:49;4.88;;;1.50;;
54171;SDS011;40076;52.354;4.970;2024-01-30T11:01:17;6.03;;;1.40;;
54171;SDS011;40076;52.354;4.970;2024-01-30T11:03:44;5.85;;;1.42;;
54171;SDS011;40076;52.354;4.970;2024-01-30T11:06:10;8.05;;;1.17;;
54171;SDS011;40076;52.354;4.970;2024-01-30T11:08:43;4.97;;;1.58;;
54171;SDS011;40076;52.354;4.970;2024-01-30T11:11:08;5.43;;;1.20;;
54171;SDS011;40076;52.354;4.970;2024-01-30T11:13:34;5.93;;;1.60;;
54171;SDS011;40076;52.354;4.970;2024-01-30T11:16:00;5.32;;;1.20;;
54171;SDS011;40076;52.354;4.970;2024-01-30T11:18:30;9.20;;;1.10;;
54171;SDS011;40076;52.354;4.970;2024-01-30T11:23:27;6.00;;;1.02;;
54171;SDS011;40076;52.354;4.970;2024-01-30T11:25:53;5.18;;;1.00;;
54171;SDS011;40076;52.354;4.970;2024-01-30T11:28:19;5.78;;;0.90;;
54171;SDS011;40076;52.354;4.970;2024-01-30T11:30:46;9.50;;;1.20;;
54171;SDS011;40076;52.354;4.970;2024-01-30T11:33:14;5.35;;;1.00;;
54171;SDS011;40076;52.354;4.970;2024-01-30T11:35:43;7.43;;;1.27;;
54171;SDS011;40076;52.354;4.970;2024-01-30T11:38:10;13.40;;;1.42;;
54171;SDS011;40076;52.354;4.970;2024-01-30T11:40:38;4.88;;;1.05;;
54171;SDS011;40076;52.354;4.970;2024-01-30T11:43:06;6.90;;;1.20;;
54171;SDS011;40076;52.354;4.970;2024-01-30T11:45:32;5.78;;;0.82;;
54171;SDS011;40076;52.354;4.970;2024-01-30T11:47:59;10.77;;;1.52;;
54171;SDS011;40076;52.354;4.970;2024-01-30T11:50:32;7.40;;;0.90;;
54171;SDS011;40076;52.354;4.970;2024-01-30T11:52:59;6.22;;;1.27;;
54171;SDS011;40076;52.354;4.970;2024-01-30T11:55:24;11.90;;;2.17;;
54171;SDS011;40076;52.354;4.970;2024-01-30T11:57:50;6.63;;;1.17;;
54171;SDS011;40076;52.354;4.970;2024-01-30T12:00:16;7.80;;;1.45;;
54171;SDS011;40076;52.354;4.970;2024-01-30T12:02:49;5.50;;;1.30;;
54171;SDS011;40076;52.354;4.970;2024-01-30T12:05:26;9.32;;;1.60;;
54171;SDS011;40076;52.354;4.970;2024-01-30T12:07:53;7.28;;;2.03;;
54171;SDS011;40076;52.354;4.970;2024-01-30T12:10:18;10.13;;;1.60;;
54171;SDS011;40076;52.354;4.970;2024-01-30T12:12:45;8.30;;;2.30;;
54171;SDS011;40076;52.354;4.970;2024-01-30T12:15:12;9.07;;;1.42;;
54171;SDS011;40076;52.354;4.970;2024-01-30T12:17:38;9.00;;;1.63;;
54171;SDS011;40076;52.354;4.970;2024-01-30T12:22:29;8.32;;;1.90;;
54171;SDS011;40076;52.354;4.970;2024-01-30T12:24:54;8.55;;;2.05;;
54171;SDS011;40076;52.354;4.970;2024-01-30T12:27:20;10.75;;;2.38;;
54171;SDS011;40076;52.354;4.970;2024-01-30T12:29:45;8.35;;;2.17;;
54171;SDS011;40076;52.354;4.970;2024-01-30T12:32:14;11.65;;;3.33;;
54171;SDS011;40076;52.354;4.970;2024-01-30T12:34:41;11.90;;;2.67;;
54171;SDS011;40076;52.354;4.970;2024-01-30T12:37:06;14.77;;;2.92;;
54171;SDS011;40076;52.354;4.970;2024-01-30T12:39:34;10.50;;;2.80;;
54171;SDS011;40076;52.354;4.970;2024-01-30T12:42:00;11.73;;;3.30;;
54171;SDS011;40076;52.354;4.970;2024-01-30T12:44:25;14.98;;;2.70;;
54171;SDS011;40076;52.354;4.970;2024-01-30T12:46:51;11.35;;;3.42;;
54171;SDS011;40076;52.354;4.970;2024-01-30T12:49:16;14.55;;;4.20;;
54171;SDS011;40076;52.354;4.970;2024-01-30T12:51:41;18.15;;;3.28;;
54171;SDS011;40076;52.354;4.970;2024-01-30T12:54:07;10.02;;;2.80;;
54171;SDS011;40076;52.354;4.970;2024-01-30T12:56:32;13.55;;;2.75;;
54171;SDS011;40076;52.354;4.970;2024-01-30T12:58:58;9.90;;;2.85;;
54171;SDS011;40076;52.354;4.970;2024-01-30T13:01:23;14.00;;;3.30;;
54171;SDS011;40076;52.354;4.970;2024-01-30T13:03:49;15.15;;;3.10;;
54171;SDS011;40076;52.354;4.970;2024-01-30T13:06:14;16.08;;;2.78;;
54171;SDS011;40076;52.354;4.970;2024-01-30T13:08:40;19.15;;;2.95;;
54171;SDS011;40076;52.354;4.970;2024-01-30T13:11:05;12.30;;;2.63;;
54171;SDS011;40076;52.354;4.970;2024-01-30T13:13:30;15.93;;;3.42;;
54171;SDS011;40076;52.354;4.970;2024-01-30T13:15:56;12.45;;;3.42;;
54171;SDS011;40076;52.354;4.970;2024-01-30T13:18:22;10.73;;;3.08;;
54171;SDS011;40076;52.354;4.970;2024-01-30T13:20:47;9.95;;;3.17;;
54171;SDS011;40076;52.354;4.970;2024-01-30T13:23:12;11.75;;;3.60;;
54171;SDS011;40076;52.354;4.970;2024-01-30T13:25:38;11.18;;;3.15;;
54171;SDS011;40076;52.354;4.970;2024-01-30T13:28:03;9.00;;;3.92;;
54171;SDS011;40076;52.354;4.970;2024-01-30T13:30:28;12.32;;;3.40;;
54171;SDS011;40076;52.354;4.970;2024-01-30T13:32:54;11.57;;;3.47;;
54171;SDS011;40076;52.354;4.970;2024-01-30T13:35:19;8.20;;;3.50;;
54171;SDS011;40076;52.354;4.970;2024-01-30T13:37:45;7.38;;;3.05;;
54171;SDS011;40076;52.354;4.970;2024-01-30T13:40:12;6.72;;;3.30;;
54171;SDS011;40076;52.354;4.970;2024-01-30T13:42:39;11.43;;;3.22;;
54171;SDS011;40076;52.354;4.970;2024-01-30T13:45:05;8.05;;;3.42;;
54171;SDS011;40076;52.354;4.970;2024-01-30T13:47:30;8.27;;;3.42;;
54171;SDS011;40076;52.354;4.970;2024-01-30T13:49:56;9.68;;;3.45;;
54171;SDS011;40076;52.354;4.970;2024-01-30T13:52:21;8.50;;;2.90;;
54171;SDS011;40076;52.354;4.970;2024-01-30T13:54:46;7.03;;;3.47;;
54171;SDS011;40076;52.354;4.970;2024-01-30T13:57:11;7.88;;;2.75;;
54171;SDS011;40076;52.354;4.970;2024-01-30T13:59:40;7.75;;;3.20;;
54171;SDS011;40076;52.354;4.970;2024-01-30T14:02:05;8.65;;;3.25;;
54171;SDS011;40076;52.354;4.970;2024-01-30T14:04:33;9.18;;;3.97;;
54171;SDS011;40076;52.354;4.970;2024-01-30T14:06:58;8.38;;;3.03;;
54171;SDS011;40076;52.354;4.970;2024-01-30T14:09:24;5.88;;;2.63;;
54171;SDS011;40076;52.354;4.970;2024-01-30T14:11:50;7.20;;;3.13;;
54171;SDS011;40076;52.354;4.970;2024-01-30T14:14:15;5.32;;;2.60;;
54171;SDS011;40076;52.354;4.970;2024-01-30T14:16:40;6.70;;;2.78;;
54171;SDS011;40076;52.354;4.970;2024-01-30T14:19:05;7.70;;;2.75;;
54171;SDS011;40076;52.354;4.970;2024-01-30T14:21:31;6.80;;;2.90;;
54171;SDS011;40076;52.354;4.970;2024-01-30T14:23:56;9.15;;;3.28;;
54171;SDS011;40076;52.354;4.970;2024-01-30T14:26:22;8.25;;;3.15;;
54171;SDS011;40076;52.354;4.970;2024-01-30T14:28:47;8.80;;;3.25;;
54171;SDS011;40076;52.354;4.970;2024-01-30T14:31:12;4.63;;;3.10;;
54171;SDS011;40076;52.354;4.970;2024-01-30T14:33:38;8.82;;;3.55;;
54171;SDS011;40076;52.354;4.970;2024-01-30T14:36:04;10.88;;;3.45;;
54171;SDS011;40076;52.354;4.970;2024-01-30T14:38:29;10.13;;;3.80;;
54171;SDS011;40076;52.354;4.970;2024-01-30T14:40:55;9.63;;;3.75;;
54171;SDS011;40076;52.354;4.970;2024-01-30T14:43:20;7.65;;;3.42;;
54171;SDS011;40076;52.354;4.970;2024-01-30T14:45:45;7.07;;;3.15;;
54171;SDS011;40076;52.354;4.970;2024-01-30T14:48:14;8.45;;;3.17;;
54171;SDS011;40076;52.354;4.970;2024-01-30T14:50:39;6.15;;;2.83;;
54171;SDS011;40076;52.354;4.970;2024-01-30T14:53:04;7.00;;;2.63;;
54171;SDS011;40076;52.354;4.970;2024-01-30T14:55:30;5.13;;;2.17;;
54171;SDS011;40076;52.354;4.970;2024-01-30T14:57:55;6.63;;;2.20;;
54171;SDS011;40076;52.354;4.970;2024-01-30T15:00:21;4.70;;;2.10;;
54171;SDS011;40076;52.354;4.970;2024-01-30T15:02:46;6.28;;;2.33;;
54171;SDS011;40076;52.354;4.970;2024-01-30T15:05:12;5.57;;;2.10;;
54171;SDS011;40076;52.354;4.970;2024-01-30T15:07:38;4.85;;;2.35;;
54171;SDS011;40076;52.354;4.970;2024-01-30T15:10:04;5.72;;;2.08;;